ARG1884 SAWH-SAEZ
Flight info
| Callsign | ARG1884 |
|---|---|
| Flight time | 2h 54m |
| Altitude | 39000 |
| Route | GRA2B GRA UT662 DIL UZ117 GBE GBE7X |
| Aircraft | A346/H-SDE2E3FGHIJ3J4J5M1RWXY/LB1D1 |
Departure
| Time | 2026-04-28 20:26 |
|---|---|
| Airport | Ushuaia - Malvinas Argentinas International Airport (SAWH) |
Arrival
| Time | 2026-04-28 23:21 |
|---|---|
| Airport | Ezeiza International Airport - Ministro Pistarini (SAEZ) |
| Time | Latitude | Longitude | Altitude | Speed | Heading |
|---|---|---|---|---|---|
| 2026-04-28 20:07 | -54.84104 | -68.30553 | 119 ft | 0 kts | 291° |
| 2026-04-28 20:14 | -54.84105 | -68.30553 | 119 ft | 0 kts | 291° |
| 2026-04-28 20:17 | -54.84104 | -68.30553 | 119 ft | 0 kts | 291° |
| 2026-04-28 20:17 | -54.84103 | -68.30560 | 119 ft | 0 kts | 291° |
| 2026-04-28 20:17 | -54.84102 | -68.30564 | 119 ft | 0 kts | 289° |
| 2026-04-28 20:17 | -54.84098 | -68.30588 | 119 ft | 6 kts | 281° |
| 2026-04-28 20:18 | -54.84110 | -68.30647 | 120 ft | 3 kts | 212° |
| 2026-04-28 20:18 | -54.84131 | -68.30660 | 120 ft | 5 kts | 184° |
| 2026-04-28 20:18 | -54.84188 | -68.30668 | 119 ft | 3 kts | 201° |
| 2026-04-28 20:18 | -54.84210 | -68.30726 | 117 ft | 7 kts | 248° |
| 2026-04-28 20:19 | -54.84215 | -68.30793 | 116 ft | 9 kts | 267° |
| 2026-04-28 20:19 | -54.84219 | -68.30915 | 115 ft | 2 kts | 266° |
| 2026-04-28 20:19 | -54.84227 | -68.30943 | 115 ft | 3 kts | 206° |
| 2026-04-28 20:20 | -54.84269 | -68.30959 | 114 ft | 8 kts | 181° |
| 2026-04-28 20:20 | -54.84339 | -68.30954 | 113 ft | 11 kts | 176° |
| 2026-04-28 20:20 | -54.84381 | -68.30922 | 112 ft | 5 kts | 107° |
| 2026-04-28 20:20 | -54.84380 | -68.30840 | 113 ft | 7 kts | 86° |
| 2026-04-28 20:21 | -54.84376 | -68.30727 | 113 ft | 10 kts | 85° |
| 2026-04-28 20:21 | -54.84370 | -68.30581 | 113 ft | 13 kts | 85° |
| 2026-04-28 20:21 | -54.84363 | -68.30402 | 111 ft | 16 kts | 85° |
| 2026-04-28 20:21 | -54.84354 | -68.30174 | 105 ft | 20 kts | 86° |
| 2026-04-28 20:22 | -54.84345 | -68.29911 | 103 ft | 22 kts | 86° |
| 2026-04-28 20:22 | -54.84333 | -68.29636 | 103 ft | 23 kts | 85° |
| 2026-04-28 20:22 | -54.84322 | -68.29356 | 103 ft | 23 kts | 86° |
| 2026-04-28 20:22 | -54.84311 | -68.29051 | 95 ft | 27 kts | 86° |
| 2026-04-28 20:23 | -54.84297 | -68.28686 | 82 ft | 27 kts | 86° |
| 2026-04-28 20:23 | -54.84288 | -68.28451 | 77 ft | 18 kts | 86° |
| 2026-04-28 20:23 | -54.84280 | -68.28222 | 78 ft | 19 kts | 86° |
| 2026-04-28 20:23 | -54.84271 | -68.27990 | 79 ft | 19 kts | 85° |
| 2026-04-28 20:24 | -54.84261 | -68.27764 | 79 ft | 15 kts | 85° |
| 2026-04-28 20:24 | -54.84255 | -68.27621 | 76 ft | 11 kts | 85° |
| 2026-04-28 20:24 | -54.84225 | -68.27458 | 70 ft | 14 kts | 59° |
| 2026-04-28 20:24 | -54.84209 | -68.27323 | 63 ft | 11 kts | 84° |
| 2026-04-28 20:25 | -54.84227 | -68.27238 | 57 ft | 7 kts | 168° |
| 2026-04-28 20:25 | -54.84239 | -68.27259 | 58 ft | 1 kts | 263° |
| 2026-04-28 20:25 | -54.84239 | -68.27261 | 58 ft | 0 kts | 262° |
| 2026-04-28 20:26 | -54.84245 | -68.27346 | 64 ft | 33 kts | 265° |
| 2026-04-28 20:26 | -54.84279 | -68.28213 | 79 ft | 111 kts | 265° |
| 2026-04-28 20:26 | -54.84344 | -68.29938 | 151 ft | 165 kts | 262° |
| 2026-04-28 20:26 | -54.84416 | -68.31941 | 737 ft | 170 kts | 265° |
| 2026-04-28 20:27 | -54.84447 | -68.33990 | 1447 ft | 173 kts | 259° |
| 2026-04-28 20:27 | -54.84909 | -68.35799 | 2150 ft | 165 kts | 221° |
| 2026-04-28 20:27 | -54.85901 | -68.36532 | 2707 ft | 159 kts | 180° |
| 2026-04-28 20:27 | -54.86992 | -68.36114 | 3221 ft | 163 kts | 158° |
| 2026-04-28 20:28 | -54.87870 | -68.34824 | 3612 ft | 181 kts | 124° |
| 2026-04-28 20:28 | -54.88089 | -68.32552 | 3891 ft | 207 kts | 84° |
| 2026-04-28 20:28 | -54.87699 | -68.30105 | 4383 ft | 215 kts | 76° |
| 2026-04-28 20:28 | -54.87217 | -68.27637 | 4924 ft | 219 kts | 75° |
| 2026-04-28 20:29 | -54.86716 | -68.25137 | 5440 ft | 223 kts | 75° |
| 2026-04-28 20:29 | -54.86205 | -68.22580 | 5942 ft | 228 kts | 74° |
| 2026-04-28 20:29 | -54.85689 | -68.19965 | 6438 ft | 232 kts | 74° |
| 2026-04-28 20:29 | -54.85285 | -68.17236 | 6859 ft | 235 kts | 94° |
| 2026-04-28 20:30 | -54.85517 | -68.14369 | 7169 ft | 241 kts | 112° |
| 2026-04-28 20:30 | -54.86037 | -68.11526 | 7478 ft | 255 kts | 116° |
| 2026-04-28 20:30 | -54.86622 | -68.08507 | 7768 ft | 272 kts | 115° |
| 2026-04-28 20:30 | -54.87208 | -68.05286 | 8064 ft | 294 kts | 112° |
| 2026-04-28 20:31 | -54.87809 | -68.01705 | 8476 ft | 312 kts | 111° |
| 2026-04-28 20:31 | -54.88391 | -67.98039 | 9068 ft | 321 kts | 110° |
| 2026-04-28 20:31 | -54.88984 | -67.94221 | 9670 ft | 330 kts | 110° |
| 2026-04-28 20:31 | -54.89594 | -67.90294 | 10044 ft | 347 kts | 109° |
| 2026-04-28 20:32 | -54.90095 | -67.86028 | 10358 ft | 370 kts | 93° |
| 2026-04-28 20:32 | -54.89667 | -67.81531 | 10655 ft | 386 kts | 64° |
| 2026-04-28 20:32 | -54.88160 | -67.77684 | 10958 ft | 389 kts | 36° |
| 2026-04-28 20:32 | -54.85892 | -67.75311 | 11303 ft | 381 kts | 9° |
| 2026-04-28 20:33 | -54.83331 | -67.74773 | 11946 ft | 362 kts | 345° |
| 2026-04-28 20:33 | -54.81012 | -67.75896 | 12846 ft | 340 kts | 325° |
| 2026-04-28 20:33 | -54.79153 | -67.78219 | 13582 ft | 330 kts | 311° |
| 2026-04-28 20:33 | -54.77331 | -67.80713 | 14157 ft | 347 kts | 325° |
| 2026-04-28 20:34 | -54.74905 | -67.81871 | 14611 ft | 379 kts | 348° |
| 2026-04-28 20:34 | -54.72201 | -67.81622 | 15181 ft | 396 kts | 358° |
| 2026-04-28 20:34 | -54.69455 | -67.81044 | 15912 ft | 398 kts | 358° |
| 2026-04-28 20:34 | -54.66715 | -67.80540 | 16542 ft | 400 kts | 356° |
| 2026-04-28 20:35 | -54.63932 | -67.80142 | 17137 ft | 403 kts | 355° |
| 2026-04-28 20:35 | -54.61145 | -67.79824 | 17725 ft | 406 kts | 355° |
| 2026-04-28 20:35 | -54.58323 | -67.79549 | 18298 ft | 410 kts | 355° |
| 2026-04-28 20:35 | -54.55450 | -67.79289 | 18866 ft | 414 kts | 354° |
| 2026-04-28 20:36 | -54.52558 | -67.79036 | 19427 ft | 417 kts | 354° |
| 2026-04-28 20:36 | -54.49669 | -67.78820 | 19978 ft | 420 kts | 354° |
| 2026-04-28 20:36 | -54.46727 | -67.78646 | 20511 ft | 424 kts | 354° |
| 2026-04-28 20:36 | -54.43769 | -67.78478 | 21027 ft | 428 kts | 354° |
| 2026-04-28 20:37 | -54.40762 | -67.78306 | 21536 ft | 432 kts | 354° |
| 2026-04-28 20:37 | -54.37758 | -67.78130 | 22044 ft | 435 kts | 354° |
| 2026-04-28 20:37 | -54.34704 | -67.77948 | 22532 ft | 439 kts | 354° |
| 2026-04-28 20:37 | -54.31631 | -67.77765 | 23003 ft | 443 kts | 354° |
| 2026-04-28 20:38 | -54.28521 | -67.77579 | 23484 ft | 446 kts | 354° |
| 2026-04-28 20:38 | -54.25428 | -67.77393 | 23942 ft | 449 kts | 354° |
| 2026-04-28 20:38 | -54.22273 | -67.77204 | 24403 ft | 453 kts | 354° |
| 2026-04-28 20:38 | -54.19107 | -67.77013 | 24834 ft | 456 kts | 354° |
| 2026-04-28 20:39 | -54.15929 | -67.76823 | 25278 ft | 459 kts | 354° |
| 2026-04-28 20:39 | -54.12730 | -67.76630 | 25712 ft | 462 kts | 354° |
| 2026-04-28 20:39 | -54.09466 | -67.76434 | 26105 ft | 466 kts | 354° |
| 2026-04-28 20:39 | -54.06222 | -67.76260 | 26511 ft | 468 kts | 5° |
| 2026-04-28 20:40 | -54.02965 | -67.76162 | 26978 ft | 470 kts | 2° |
| 2026-04-28 20:40 | -53.99717 | -67.75944 | 27365 ft | 473 kts | 2° |
| 2026-04-28 20:40 | -53.96427 | -67.75697 | 27779 ft | 475 kts | 2° |
| 2026-04-28 20:40 | -53.93107 | -67.75462 | 28199 ft | 477 kts | 2° |
| 2026-04-28 20:41 | -53.89791 | -67.75249 | 28682 ft | 477 kts | 2° |
| 2026-04-28 20:41 | -53.86489 | -67.75052 | 29267 ft | 475 kts | 2° |
| 2026-04-28 20:41 | -53.83190 | -67.74631 | 29841 ft | 473 kts | 7° |
| 2026-04-28 20:41 | -53.79945 | -67.73739 | 30372 ft | 471 kts | 12° |
| 2026-04-28 20:42 | -53.76793 | -67.72386 | 30869 ft | 470 kts | 17° |
| 2026-04-28 20:42 | -53.73680 | -67.70548 | 31358 ft | 469 kts | 22° |
| 2026-04-28 20:42 | -53.70705 | -67.68280 | 31832 ft | 468 kts | 27° |
| 2026-04-28 20:42 | -53.67832 | -67.65694 | 32297 ft | 467 kts | 29° |
| 2026-04-28 20:43 | -53.64994 | -67.63081 | 32747 ft | 466 kts | 29° |
| 2026-04-28 20:43 | -53.62146 | -67.60455 | 33180 ft | 466 kts | 29° |
| 2026-04-28 20:43 | -53.59317 | -67.57854 | 33601 ft | 465 kts | 29° |
| 2026-04-28 20:43 | -53.56459 | -67.55236 | 34022 ft | 464 kts | 29° |
| 2026-04-28 20:44 | -53.53665 | -67.52683 | 34422 ft | 463 kts | 29° |
| 2026-04-28 20:44 | -53.50825 | -67.50096 | 34813 ft | 462 kts | 29° |
| 2026-04-28 20:44 | -53.48013 | -67.47540 | 35183 ft | 462 kts | 29° |
| 2026-04-28 20:44 | -53.45163 | -67.44953 | 35550 ft | 461 kts | 29° |
| 2026-04-28 20:45 | -53.42344 | -67.42399 | 35896 ft | 460 kts | 29° |
| 2026-04-28 20:45 | -53.39571 | -67.39891 | 36214 ft | 459 kts | 29° |
| 2026-04-28 20:45 | -53.36785 | -67.37374 | 36506 ft | 459 kts | 29° |
| 2026-04-28 20:45 | -53.33948 | -67.34817 | 36778 ft | 459 kts | 28° |
| 2026-04-28 20:46 | -53.31130 | -67.32269 | 37031 ft | 459 kts | 28° |
| 2026-04-28 20:46 | -53.28319 | -67.29727 | 37265 ft | 459 kts | 28° |
| 2026-04-28 20:46 | -53.25512 | -67.27196 | 37462 ft | 460 kts | 28° |
| 2026-04-28 20:46 | -53.22693 | -67.24662 | 37635 ft | 461 kts | 28° |
| 2026-04-28 20:47 | -53.19854 | -67.22118 | 37802 ft | 462 kts | 28° |
| 2026-04-28 20:47 | -53.17015 | -67.19579 | 37967 ft | 463 kts | 28° |
| 2026-04-28 20:47 | -53.14173 | -67.17043 | 38129 ft | 464 kts | 28° |
| 2026-04-28 20:47 | -53.11319 | -67.14503 | 38284 ft | 465 kts | 28° |
| 2026-04-28 20:48 | -53.08485 | -67.11983 | 38431 ft | 466 kts | 28° |
| 2026-04-28 20:48 | -53.05648 | -67.09466 | 38569 ft | 467 kts | 28° |
| 2026-04-28 20:48 | -53.02760 | -67.06906 | 38702 ft | 468 kts | 28° |
| 2026-04-28 20:48 | -52.99883 | -67.04360 | 38829 ft | 468 kts | 28° |
| 2026-04-28 20:49 | -52.97018 | -67.01829 | 38949 ft | 469 kts | 28° |
| 2026-04-28 20:49 | -52.91231 | -66.96728 | 39028 ft | 471 kts | 28° |
| 2026-04-28 20:50 | -52.85482 | -66.91691 | 39033 ft | 471 kts | 28° |
| 2026-04-28 20:50 | -52.79687 | -66.86611 | 39034 ft | 471 kts | 28° |
| 2026-04-28 20:51 | -52.73931 | -66.81552 | 39035 ft | 471 kts | 28° |
| 2026-04-28 20:51 | -52.68142 | -66.76478 | 39035 ft | 471 kts | 28° |
| 2026-04-28 20:52 | -52.62375 | -66.71437 | 39035 ft | 471 kts | 28° |
| 2026-04-28 20:52 | -52.56583 | -66.66390 | 39035 ft | 471 kts | 28° |
| 2026-04-28 20:53 | -52.47903 | -66.58854 | 39035 ft | 471 kts | 28° |
| 2026-04-28 20:53 | -52.42120 | -66.53853 | 39035 ft | 471 kts | 28° |
| 2026-04-28 20:54 | -52.36340 | -66.48869 | 39035 ft | 471 kts | 28° |
| 2026-04-28 20:54 | -52.30567 | -66.43906 | 39035 ft | 471 kts | 28° |
| 2026-04-28 20:55 | -52.24778 | -66.38944 | 39035 ft | 471 kts | 28° |
| 2026-04-28 20:55 | -52.18987 | -66.33993 | 39035 ft | 471 kts | 27° |
| 2026-04-28 20:56 | -52.13171 | -66.29009 | 39035 ft | 471 kts | 27° |
| 2026-04-28 20:56 | -52.07407 | -66.24097 | 39035 ft | 471 kts | 27° |
| 2026-04-28 20:57 | -52.01620 | -66.19192 | 39035 ft | 471 kts | 27° |
| 2026-04-28 20:57 | -51.95830 | -66.14304 | 39035 ft | 471 kts | 27° |
| 2026-04-28 20:58 | -51.90007 | -66.09404 | 39035 ft | 471 kts | 27° |
| 2026-04-28 20:58 | -51.84190 | -66.04542 | 39035 ft | 471 kts | 27° |
| 2026-04-28 20:59 | -51.78330 | -65.99900 | 39034 ft | 471 kts | 23° |
| 2026-04-28 20:59 | -51.72222 | -65.96091 | 39035 ft | 471 kts | 20° |
| 2026-04-28 21:00 | -51.66112 | -65.92420 | 39035 ft | 471 kts | 20° |
| 2026-04-28 21:00 | -51.60011 | -65.88759 | 39035 ft | 471 kts | 20° |
| 2026-04-28 21:01 | -51.53887 | -65.85095 | 39035 ft | 471 kts | 20° |
| 2026-04-28 21:01 | -51.47758 | -65.81440 | 39035 ft | 471 kts | 20° |
| 2026-04-28 21:02 | -51.41616 | -65.77786 | 39035 ft | 471 kts | 20° |
| 2026-04-28 21:02 | -51.35437 | -65.74122 | 39035 ft | 471 kts | 20° |
| 2026-04-28 21:03 | -51.29308 | -65.70497 | 39035 ft | 471 kts | 20° |
| 2026-04-28 21:03 | -51.23115 | -65.66846 | 39035 ft | 471 kts | 20° |
| 2026-04-28 21:04 | -51.16948 | -65.63219 | 39035 ft | 471 kts | 20° |
| 2026-04-28 21:04 | -51.10770 | -65.59597 | 39035 ft | 471 kts | 20° |
| 2026-04-28 21:05 | -51.04599 | -65.55989 | 39035 ft | 471 kts | 20° |
| 2026-04-28 21:05 | -50.98476 | -65.52419 | 39035 ft | 471 kts | 20° |
| 2026-04-28 21:06 | -50.92319 | -65.48840 | 39035 ft | 471 kts | 20° |
| 2026-04-28 21:06 | -50.86149 | -65.45271 | 39035 ft | 471 kts | 20° |
| 2026-04-28 21:07 | -50.80000 | -65.41734 | 39035 ft | 471 kts | 20° |
| 2026-04-28 21:07 | -50.73870 | -65.38209 | 39035 ft | 471 kts | 20° |
| 2026-04-28 21:08 | -50.67721 | -65.34676 | 39035 ft | 471 kts | 20° |
| 2026-04-28 21:08 | -50.61519 | -65.31093 | 39035 ft | 471 kts | 20° |
| 2026-04-28 21:09 | -50.55372 | -65.27560 | 39035 ft | 471 kts | 20° |
| 2026-04-28 21:09 | -50.49211 | -65.24040 | 39035 ft | 471 kts | 20° |
| 2026-04-28 21:10 | -50.43077 | -65.20551 | 39035 ft | 471 kts | 19° |
| 2026-04-28 21:10 | -50.36908 | -65.17053 | 39035 ft | 471 kts | 19° |
| 2026-04-28 21:11 | -50.30813 | -65.13608 | 39035 ft | 471 kts | 19° |
| 2026-04-28 21:11 | -50.24668 | -65.10144 | 39035 ft | 471 kts | 19° |
| 2026-04-28 21:12 | -50.18507 | -65.06678 | 39035 ft | 471 kts | 20° |
| 2026-04-28 21:12 | -50.12336 | -65.03215 | 39035 ft | 471 kts | 20° |
| 2026-04-28 21:13 | -50.06170 | -64.99766 | 39035 ft | 471 kts | 19° |
| 2026-04-28 21:13 | -49.99937 | -64.96291 | 39035 ft | 471 kts | 19° |
| 2026-04-28 21:14 | -49.93762 | -64.92857 | 39035 ft | 471 kts | 19° |
| 2026-04-28 21:14 | -49.87583 | -64.89432 | 39035 ft | 471 kts | 19° |
| 2026-04-28 21:15 | -49.81405 | -64.86033 | 39035 ft | 471 kts | 19° |
| 2026-04-28 21:15 | -49.75236 | -64.82639 | 39035 ft | 471 kts | 19° |
| 2026-04-28 21:16 | -49.69070 | -64.79250 | 39035 ft | 471 kts | 20° |
| 2026-04-28 21:16 | -49.62860 | -64.75844 | 39035 ft | 471 kts | 20° |
| 2026-04-28 21:17 | -49.56676 | -64.72460 | 39035 ft | 471 kts | 20° |
| 2026-04-28 21:17 | -49.50533 | -64.69109 | 39035 ft | 471 kts | 20° |
| 2026-04-28 21:18 | -49.44350 | -64.65744 | 39035 ft | 471 kts | 20° |
| 2026-04-28 21:18 | -49.38183 | -64.62397 | 39035 ft | 471 kts | 20° |
| 2026-04-28 21:19 | -49.31990 | -64.59045 | 39035 ft | 471 kts | 20° |
| 2026-04-28 21:19 | -49.25833 | -64.55721 | 39035 ft | 471 kts | 20° |
| 2026-04-28 21:20 | -49.19626 | -64.52379 | 39035 ft | 471 kts | 20° |
| 2026-04-28 21:20 | -49.13435 | -64.49054 | 39035 ft | 471 kts | 20° |
| 2026-04-28 21:21 | -49.07284 | -64.45760 | 39035 ft | 471 kts | 20° |
| 2026-04-28 21:21 | -49.01120 | -64.42467 | 39035 ft | 471 kts | 20° |
| 2026-04-28 21:22 | -48.94913 | -64.39160 | 39035 ft | 471 kts | 20° |
| 2026-04-28 21:22 | -48.89788 | -64.36437 | 39035 ft | 471 kts | 20° |
| 2026-04-28 21:23 | -48.82573 | -64.32612 | 39035 ft | 471 kts | 19° |
| 2026-04-28 21:23 | -48.76364 | -64.29314 | 39035 ft | 471 kts | 19° |
| 2026-04-28 21:24 | -48.70152 | -64.26032 | 39035 ft | 471 kts | 19° |
| 2026-04-28 21:24 | -48.63962 | -64.22776 | 39035 ft | 471 kts | 19° |
| 2026-04-28 21:25 | -48.57771 | -64.19528 | 39035 ft | 471 kts | 19° |
| 2026-04-28 21:25 | -48.51578 | -64.16290 | 39035 ft | 471 kts | 19° |
| 2026-04-28 21:26 | -48.45356 | -64.13043 | 39035 ft | 471 kts | 19° |
| 2026-04-28 21:26 | -48.39186 | -64.09833 | 39035 ft | 471 kts | 19° |
| 2026-04-28 21:27 | -48.32955 | -64.06599 | 39035 ft | 471 kts | 19° |
| 2026-04-28 21:27 | -48.26772 | -64.03398 | 39035 ft | 471 kts | 19° |
| 2026-04-28 21:28 | -48.20547 | -64.00185 | 39035 ft | 471 kts | 19° |
| 2026-04-28 21:28 | -48.14364 | -63.97002 | 39035 ft | 471 kts | 19° |
| 2026-04-28 21:29 | -48.08135 | -63.93803 | 39035 ft | 471 kts | 19° |
| 2026-04-28 21:29 | -48.01919 | -63.90619 | 39035 ft | 471 kts | 19° |
| 2026-04-28 21:30 | -47.95752 | -63.87468 | 39035 ft | 471 kts | 19° |
| 2026-04-28 21:30 | -47.89551 | -63.84307 | 39035 ft | 471 kts | 19° |
| 2026-04-28 21:31 | -47.83344 | -63.81166 | 39035 ft | 471 kts | 19° |
| 2026-04-28 21:31 | -47.77126 | -63.78023 | 39035 ft | 471 kts | 19° |
| 2026-04-28 21:32 | -47.70918 | -63.74887 | 39035 ft | 471 kts | 19° |
| 2026-04-28 21:32 | -47.64703 | -63.71753 | 39035 ft | 471 kts | 19° |
| 2026-04-28 21:33 | -47.58504 | -63.68633 | 39035 ft | 471 kts | 19° |
| 2026-04-28 21:33 | -47.52323 | -63.65530 | 39035 ft | 471 kts | 19° |
| 2026-04-28 21:34 | -47.46073 | -63.62400 | 39035 ft | 471 kts | 19° |
| 2026-04-28 21:34 | -47.39867 | -63.59300 | 39035 ft | 471 kts | 19° |
| 2026-04-28 21:35 | -47.33699 | -63.56226 | 39035 ft | 471 kts | 19° |
| 2026-04-28 21:35 | -47.27464 | -63.53126 | 39035 ft | 471 kts | 19° |
| 2026-04-28 21:36 | -47.21274 | -63.50058 | 39035 ft | 471 kts | 19° |
| 2026-04-28 21:36 | -47.15040 | -63.46974 | 39035 ft | 471 kts | 19° |
| 2026-04-28 21:37 | -47.08841 | -63.43916 | 39035 ft | 471 kts | 19° |
| 2026-04-28 21:37 | -47.02659 | -63.40873 | 39035 ft | 471 kts | 19° |
| 2026-04-28 21:38 | -46.96445 | -63.37822 | 39035 ft | 471 kts | 19° |
| 2026-04-28 21:38 | -46.90223 | -63.34775 | 39035 ft | 471 kts | 18° |
| 2026-04-28 21:39 | -46.83975 | -63.31707 | 39035 ft | 471 kts | 18° |
| 2026-04-28 21:39 | -46.77793 | -63.28685 | 39035 ft | 471 kts | 18° |
| 2026-04-28 21:40 | -46.71595 | -63.25669 | 39035 ft | 471 kts | 18° |
| 2026-04-28 21:40 | -46.65375 | -63.22651 | 39035 ft | 471 kts | 18° |
| 2026-04-28 21:41 | -46.59169 | -63.19648 | 39035 ft | 471 kts | 18° |
| 2026-04-28 21:41 | -46.52925 | -63.16635 | 39035 ft | 471 kts | 18° |
| 2026-04-28 21:42 | -46.46700 | -63.13638 | 39035 ft | 471 kts | 18° |
| 2026-04-28 21:42 | -46.40485 | -63.10652 | 39035 ft | 471 kts | 18° |
| 2026-04-28 21:43 | -46.34253 | -63.07666 | 39035 ft | 471 kts | 18° |
| 2026-04-28 21:43 | -46.28004 | -63.04679 | 39035 ft | 471 kts | 18° |
| 2026-04-28 21:44 | -46.21793 | -63.01717 | 39035 ft | 471 kts | 18° |
| 2026-04-28 21:44 | -46.15554 | -62.98748 | 39035 ft | 471 kts | 18° |
| 2026-04-28 21:45 | -46.09331 | -62.95795 | 39035 ft | 471 kts | 18° |
| 2026-04-28 21:45 | -46.03124 | -62.92856 | 39035 ft | 471 kts | 18° |
| 2026-04-28 21:46 | -45.96922 | -62.89926 | 39035 ft | 471 kts | 18° |
| 2026-04-28 21:46 | -45.90683 | -62.86987 | 39035 ft | 471 kts | 18° |
| 2026-04-28 21:47 | -45.84512 | -62.84096 | 39035 ft | 471 kts | 18° |
| 2026-04-28 21:47 | -45.78265 | -62.81177 | 39035 ft | 471 kts | 18° |
| 2026-04-28 21:48 | -45.72068 | -62.78282 | 39035 ft | 471 kts | 18° |
| 2026-04-28 21:48 | -45.65842 | -62.75376 | 39035 ft | 471 kts | 18° |
| 2026-04-28 21:49 | -45.59636 | -62.72486 | 39035 ft | 471 kts | 18° |
| 2026-04-28 21:49 | -45.53408 | -62.69591 | 39035 ft | 471 kts | 18° |
| 2026-04-28 21:50 | -45.47179 | -62.66703 | 39035 ft | 471 kts | 18° |
| 2026-04-28 21:50 | -45.40945 | -62.63819 | 39035 ft | 471 kts | 18° |
| 2026-04-28 21:51 | -45.34710 | -62.60941 | 39035 ft | 471 kts | 18° |
| 2026-04-28 21:51 | -45.28521 | -62.58091 | 39035 ft | 471 kts | 18° |
| 2026-04-28 21:52 | -45.22242 | -62.55205 | 39035 ft | 471 kts | 18° |
| 2026-04-28 21:52 | -45.16040 | -62.52361 | 39035 ft | 471 kts | 18° |
| 2026-04-28 21:53 | -45.09781 | -62.49496 | 39035 ft | 471 kts | 18° |
| 2026-04-28 21:53 | -45.03549 | -62.46652 | 39035 ft | 471 kts | 18° |
| 2026-04-28 21:54 | -44.97326 | -62.43825 | 39035 ft | 471 kts | 18° |
| 2026-04-28 21:54 | -44.91099 | -62.41004 | 39035 ft | 471 kts | 18° |
| 2026-04-28 21:55 | -44.84868 | -62.38193 | 39035 ft | 471 kts | 18° |
| 2026-04-28 21:55 | -44.78573 | -62.35363 | 39035 ft | 471 kts | 18° |
| 2026-04-28 21:56 | -44.72340 | -62.32536 | 39035 ft | 471 kts | 18° |
| 2026-04-28 21:56 | -44.66050 | -62.29684 | 39035 ft | 471 kts | 17° |
| 2026-04-28 21:57 | -44.59610 | -62.26785 | 39035 ft | 471 kts | 17° |
| 2026-04-28 21:57 | -44.53073 | -62.23856 | 39035 ft | 471 kts | 17° |
| 2026-04-28 21:58 | -44.46333 | -62.20845 | 39035 ft | 471 kts | 17° |
| 2026-04-28 21:58 | -44.39762 | -62.17917 | 39035 ft | 471 kts | 17° |
| 2026-04-28 21:59 | -44.33060 | -62.14938 | 39035 ft | 471 kts | 17° |
| 2026-04-28 22:00 | -44.23014 | -62.10486 | 39035 ft | 471 kts | 17° |
| 2026-04-28 22:00 | -44.16278 | -62.07510 | 39035 ft | 471 kts | 17° |
| 2026-04-28 22:01 | -44.09549 | -62.04543 | 39035 ft | 471 kts | 17° |
| 2026-04-28 22:01 | -44.02898 | -62.01619 | 39035 ft | 471 kts | 17° |
| 2026-04-28 22:02 | -43.96185 | -61.98674 | 39035 ft | 471 kts | 17° |
| 2026-04-28 22:02 | -43.89528 | -61.95760 | 39035 ft | 471 kts | 17° |
| 2026-04-28 22:03 | -43.82870 | -61.92866 | 39035 ft | 471 kts | 17° |
| 2026-04-28 22:03 | -43.76226 | -61.89980 | 39035 ft | 471 kts | 17° |
| 2026-04-28 22:04 | -43.69549 | -61.87081 | 39035 ft | 471 kts | 17° |
| 2026-04-28 22:04 | -43.62914 | -61.84204 | 39035 ft | 471 kts | 17° |
| 2026-04-28 22:05 | -43.56254 | -61.81323 | 39035 ft | 471 kts | 17° |
| 2026-04-28 22:05 | -43.49621 | -61.78460 | 39035 ft | 471 kts | 17° |
| 2026-04-28 22:06 | -43.42938 | -61.75582 | 39035 ft | 471 kts | 17° |
| 2026-04-28 22:06 | -43.36355 | -61.72753 | 39035 ft | 471 kts | 17° |
| 2026-04-28 22:07 | -43.29702 | -61.69901 | 39035 ft | 471 kts | 17° |
| 2026-04-28 22:07 | -43.23018 | -61.67042 | 39035 ft | 471 kts | 17° |
| 2026-04-28 22:08 | -43.16327 | -61.64186 | 39035 ft | 471 kts | 17° |
| 2026-04-28 22:08 | -43.09729 | -61.61375 | 39035 ft | 471 kts | 17° |
| 2026-04-28 22:09 | -43.03114 | -61.58563 | 39035 ft | 471 kts | 17° |
| 2026-04-28 22:09 | -42.96439 | -61.55734 | 39035 ft | 471 kts | 17° |
| 2026-04-28 22:10 | -42.89690 | -61.52887 | 39035 ft | 471 kts | 17° |
| 2026-04-28 22:10 | -42.83002 | -61.50082 | 39035 ft | 471 kts | 17° |
| 2026-04-28 22:11 | -42.76364 | -61.47299 | 39035 ft | 471 kts | 17° |
| 2026-04-28 22:11 | -42.69782 | -61.44539 | 39035 ft | 471 kts | 17° |
| 2026-04-28 22:12 | -42.63161 | -61.41767 | 39035 ft | 471 kts | 17° |
| 2026-04-28 22:12 | -42.56684 | -61.39059 | 39035 ft | 471 kts | 17° |
| 2026-04-28 22:13 | -42.50240 | -61.36372 | 39035 ft | 471 kts | 17° |
| 2026-04-28 22:13 | -42.43686 | -61.33633 | 39035 ft | 471 kts | 17° |
| 2026-04-28 22:14 | -42.36967 | -61.30812 | 39035 ft | 471 kts | 17° |
| 2026-04-28 22:14 | -42.30196 | -61.27994 | 39035 ft | 471 kts | 17° |
| 2026-04-28 22:15 | -42.23484 | -61.25215 | 39035 ft | 471 kts | 17° |
| 2026-04-28 22:15 | -42.17026 | -61.22550 | 39035 ft | 471 kts | 17° |
| 2026-04-28 22:16 | -42.10372 | -61.19811 | 39035 ft | 471 kts | 17° |
| 2026-04-28 22:16 | -42.03668 | -61.17058 | 39035 ft | 471 kts | 17° |
| 2026-04-28 22:17 | -41.96950 | -61.14305 | 39035 ft | 471 kts | 17° |
| 2026-04-28 22:17 | -41.90332 | -61.11599 | 39035 ft | 471 kts | 17° |
| 2026-04-28 22:18 | -41.83799 | -61.08944 | 39035 ft | 471 kts | 17° |
| 2026-04-28 22:18 | -41.76981 | -61.06177 | 39035 ft | 471 kts | 17° |
| 2026-04-28 22:19 | -41.70272 | -61.03455 | 39035 ft | 471 kts | 17° |
| 2026-04-28 22:19 | -41.63496 | -61.00708 | 39035 ft | 471 kts | 17° |
| 2026-04-28 22:20 | -41.56901 | -60.98042 | 39035 ft | 471 kts | 17° |
| 2026-04-28 22:20 | -41.50259 | -60.95361 | 39035 ft | 471 kts | 17° |
| 2026-04-28 22:21 | -41.43551 | -60.92659 | 39035 ft | 471 kts | 17° |
| 2026-04-28 22:21 | -41.36842 | -60.89964 | 39035 ft | 471 kts | 17° |
| 2026-04-28 22:22 | -41.30083 | -60.87253 | 39035 ft | 471 kts | 17° |
| 2026-04-28 22:22 | -41.23346 | -60.84557 | 39035 ft | 471 kts | 17° |
| 2026-04-28 22:23 | -41.16883 | -60.81976 | 39035 ft | 471 kts | 17° |
| 2026-04-28 22:23 | -41.10433 | -60.79406 | 39035 ft | 471 kts | 17° |
| 2026-04-28 22:24 | -41.04042 | -60.76865 | 39035 ft | 471 kts | 17° |
| 2026-04-28 22:24 | -40.97650 | -60.74327 | 39035 ft | 471 kts | 17° |
| 2026-04-28 22:25 | -40.91182 | -60.71766 | 39035 ft | 471 kts | 17° |
| 2026-04-28 22:25 | -40.84561 | -60.69157 | 39035 ft | 471 kts | 17° |
| 2026-04-28 22:26 | -40.78100 | -60.66618 | 39035 ft | 471 kts | 17° |
| 2026-04-28 22:26 | -40.71358 | -60.63966 | 39035 ft | 471 kts | 17° |
| 2026-04-28 22:27 | -40.64526 | -60.61280 | 39035 ft | 471 kts | 17° |
| 2026-04-28 22:27 | -40.57710 | -60.58605 | 39035 ft | 471 kts | 17° |
| 2026-04-28 22:28 | -40.50968 | -60.55965 | 39035 ft | 471 kts | 17° |
| 2026-04-28 22:28 | -40.44347 | -60.53272 | 39035 ft | 471 kts | 18° |
| 2026-04-28 22:29 | -40.37817 | -60.50484 | 39035 ft | 471 kts | 18° |
| 2026-04-28 22:29 | -40.31545 | -60.47814 | 39035 ft | 471 kts | 18° |
| 2026-04-28 22:30 | -40.24879 | -60.44991 | 39035 ft | 471 kts | 18° |
| 2026-04-28 22:30 | -40.18181 | -60.42163 | 39035 ft | 471 kts | 18° |
| 2026-04-28 22:31 | -40.11434 | -60.39321 | 39035 ft | 471 kts | 18° |
| 2026-04-28 22:31 | -40.04719 | -60.36499 | 39035 ft | 471 kts | 18° |
| 2026-04-28 22:32 | -39.98214 | -60.33763 | 39035 ft | 471 kts | 18° |
| 2026-04-28 22:32 | -39.91754 | -60.31031 | 39035 ft | 471 kts | 18° |
| 2026-04-28 22:33 | -39.85221 | -60.28296 | 39035 ft | 471 kts | 17° |
| 2026-04-28 22:33 | -39.78606 | -60.25545 | 39035 ft | 471 kts | 17° |
| 2026-04-28 22:34 | -39.71960 | -60.22784 | 39035 ft | 471 kts | 17° |
| 2026-04-28 22:34 | -39.65545 | -60.20122 | 39035 ft | 471 kts | 17° |
| 2026-04-28 22:35 | -39.59116 | -60.17459 | 39035 ft | 471 kts | 17° |
| 2026-04-28 22:35 | -39.52674 | -60.14794 | 39035 ft | 471 kts | 17° |
| 2026-04-28 22:36 | -39.46127 | -60.12093 | 39035 ft | 471 kts | 17° |
| 2026-04-28 22:36 | -39.39599 | -60.09404 | 39035 ft | 471 kts | 17° |
| 2026-04-28 22:37 | -39.32920 | -60.06659 | 39035 ft | 471 kts | 17° |
| 2026-04-28 22:37 | -39.26211 | -60.03907 | 39035 ft | 471 kts | 17° |
| 2026-04-28 22:38 | -39.19620 | -60.01208 | 39035 ft | 471 kts | 17° |
| 2026-04-28 22:38 | -39.13045 | -59.98522 | 39035 ft | 470 kts | 17° |
| 2026-04-28 22:39 | -39.06623 | -59.95903 | 39035 ft | 470 kts | 17° |
| 2026-04-28 22:39 | -39.00140 | -59.93264 | 39035 ft | 470 kts | 17° |
| 2026-04-28 22:40 | -38.93858 | -59.90711 | 39035 ft | 470 kts | 17° |
| 2026-04-28 22:40 | -38.87575 | -59.88166 | 39035 ft | 470 kts | 17° |
| 2026-04-28 22:41 | -38.81294 | -59.85635 | 39035 ft | 470 kts | 17° |
| 2026-04-28 22:41 | -38.75068 | -59.83125 | 39035 ft | 470 kts | 17° |
| 2026-04-28 22:42 | -38.68854 | -59.80619 | 39035 ft | 470 kts | 17° |
| 2026-04-28 22:42 | -38.62628 | -59.78113 | 39035 ft | 470 kts | 17° |
| 2026-04-28 22:43 | -38.56430 | -59.75622 | 39035 ft | 470 kts | 17° |
| 2026-04-28 22:43 | -38.50178 | -59.73114 | 39035 ft | 470 kts | 17° |
| 2026-04-28 22:44 | -38.43943 | -59.70616 | 39035 ft | 470 kts | 17° |
| 2026-04-28 22:44 | -38.37683 | -59.68111 | 39035 ft | 470 kts | 17° |
| 2026-04-28 22:45 | -38.31427 | -59.65614 | 39035 ft | 470 kts | 17° |
| 2026-04-28 22:45 | -38.25216 | -59.63148 | 39035 ft | 470 kts | 17° |
| 2026-04-28 22:46 | -38.18991 | -59.60681 | 39035 ft | 470 kts | 17° |
| 2026-04-28 22:46 | -38.12721 | -59.58197 | 39035 ft | 470 kts | 17° |
| 2026-04-28 22:47 | -38.06497 | -59.55735 | 39035 ft | 470 kts | 17° |
| 2026-04-28 22:47 | -38.00192 | -59.53246 | 39035 ft | 470 kts | 17° |
| 2026-04-28 22:48 | -37.93967 | -59.50792 | 39035 ft | 470 kts | 17° |
| 2026-04-28 22:48 | -37.87713 | -59.48334 | 39035 ft | 470 kts | 17° |
| 2026-04-28 22:49 | -37.81454 | -59.45888 | 39035 ft | 470 kts | 17° |
| 2026-04-28 22:49 | -37.75177 | -59.43432 | 39035 ft | 470 kts | 17° |
| 2026-04-28 22:50 | -37.68945 | -59.40993 | 39035 ft | 470 kts | 17° |
| 2026-04-28 22:50 | -37.62722 | -59.38578 | 39035 ft | 470 kts | 17° |
| 2026-04-28 22:51 | -37.56490 | -59.36223 | 39035 ft | 470 kts | 17° |
| 2026-04-28 22:51 | -37.50260 | -59.33855 | 39035 ft | 470 kts | 17° |
| 2026-04-28 22:52 | -37.44028 | -59.31460 | 39035 ft | 470 kts | 17° |
| 2026-04-28 22:52 | -37.37766 | -59.29068 | 38850 ft | 471 kts | 17° |
| 2026-04-28 22:52 | -37.34599 | -59.27862 | 38435 ft | 470 kts | 17° |
| 2026-04-28 22:53 | -37.31503 | -59.26687 | 37906 ft | 470 kts | 17° |
| 2026-04-28 22:53 | -37.28337 | -59.25487 | 37345 ft | 470 kts | 17° |
| 2026-04-28 22:53 | -37.25199 | -59.24298 | 36778 ft | 470 kts | 17° |
| 2026-04-28 22:53 | -37.22039 | -59.23103 | 36204 ft | 470 kts | 17° |
| 2026-04-28 22:54 | -37.18906 | -59.21919 | 35578 ft | 471 kts | 17° |
| 2026-04-28 22:54 | -37.15745 | -59.20726 | 34945 ft | 471 kts | 17° |
| 2026-04-28 22:54 | -37.12593 | -59.19537 | 34312 ft | 472 kts | 17° |
| 2026-04-28 22:54 | -37.09426 | -59.18343 | 33669 ft | 472 kts | 17° |
| 2026-04-28 22:55 | -37.06255 | -59.17149 | 33026 ft | 473 kts | 17° |
| 2026-04-28 22:55 | -37.03099 | -59.15962 | 32373 ft | 474 kts | 17° |
| 2026-04-28 22:55 | -36.99880 | -59.14751 | 31700 ft | 475 kts | 17° |
| 2026-04-28 22:55 | -36.96704 | -59.13559 | 31031 ft | 476 kts | 17° |
| 2026-04-28 22:56 | -36.93515 | -59.12362 | 30348 ft | 476 kts | 17° |
| 2026-04-28 22:56 | -36.90345 | -59.11174 | 29658 ft | 477 kts | 17° |
| 2026-04-28 22:56 | -36.87163 | -59.09985 | 28978 ft | 478 kts | 16° |
| 2026-04-28 22:56 | -36.83936 | -59.08783 | 28578 ft | 471 kts | 16° |
| 2026-04-28 22:57 | -36.80778 | -59.07607 | 28128 ft | 467 kts | 17° |
| 2026-04-28 22:57 | -36.77676 | -59.06451 | 27650 ft | 463 kts | 17° |
| 2026-04-28 22:57 | -36.74551 | -59.05286 | 27203 ft | 459 kts | 17° |
| 2026-04-28 22:57 | -36.71763 | -59.04247 | 26815 ft | 454 kts | 17° |
| 2026-04-28 22:58 | -36.68512 | -59.03036 | 26367 ft | 450 kts | 17° |
| 2026-04-28 22:58 | -36.65740 | -59.02004 | 25984 ft | 446 kts | 17° |
| 2026-04-28 22:58 | -36.62774 | -59.00900 | 25576 ft | 441 kts | 17° |
| 2026-04-28 22:58 | -36.59805 | -58.99795 | 25164 ft | 437 kts | 17° |
| 2026-04-28 22:59 | -36.56893 | -58.98713 | 24759 ft | 434 kts | 17° |
| 2026-04-28 22:59 | -36.54005 | -58.97641 | 24353 ft | 430 kts | 17° |
| 2026-04-28 22:59 | -36.51158 | -58.96585 | 23956 ft | 426 kts | 17° |
| 2026-04-28 22:59 | -36.48295 | -58.95523 | 23553 ft | 423 kts | 17° |
| 2026-04-28 23:00 | -36.45489 | -58.94484 | 23156 ft | 420 kts | 17° |
| 2026-04-28 23:00 | -36.42679 | -58.93443 | 22757 ft | 417 kts | 17° |
| 2026-04-28 23:00 | -36.39907 | -58.92418 | 22361 ft | 414 kts | 17° |
| 2026-04-28 23:00 | -36.37147 | -58.91398 | 21965 ft | 411 kts | 17° |
| 2026-04-28 23:01 | -36.34434 | -58.90396 | 21574 ft | 408 kts | 17° |
| 2026-04-28 23:01 | -36.31710 | -58.89390 | 21181 ft | 405 kts | 17° |
| 2026-04-28 23:01 | -36.29034 | -58.88403 | 20794 ft | 402 kts | 17° |
| 2026-04-28 23:01 | -36.26378 | -58.87424 | 20406 ft | 400 kts | 17° |
| 2026-04-28 23:02 | -36.23720 | -58.86445 | 20018 ft | 397 kts | 17° |
| 2026-04-28 23:02 | -36.21093 | -58.85479 | 19632 ft | 395 kts | 17° |
| 2026-04-28 23:02 | -36.18487 | -58.84520 | 19248 ft | 392 kts | 17° |
| 2026-04-28 23:02 | -36.15888 | -58.83565 | 18864 ft | 390 kts | 17° |
| 2026-04-28 23:03 | -36.13304 | -58.82616 | 18481 ft | 388 kts | 17° |
| 2026-04-28 23:03 | -36.10700 | -58.81661 | 18095 ft | 385 kts | 17° |
| 2026-04-28 23:03 | -36.08156 | -58.80727 | 17715 ft | 383 kts | 17° |
| 2026-04-28 23:03 | -36.05616 | -58.79797 | 17333 ft | 381 kts | 17° |
| 2026-04-28 23:04 | -36.03073 | -58.78865 | 16949 ft | 379 kts | 17° |
| 2026-04-28 23:04 | -35.98045 | -58.77027 | 16187 ft | 375 kts | 17° |
| 2026-04-28 23:04 | -35.95540 | -58.76112 | 15808 ft | 373 kts | 17° |
| 2026-04-28 23:05 | -35.93047 | -58.75201 | 15429 ft | 371 kts | 17° |
| 2026-04-28 23:05 | -35.90588 | -58.74304 | 15054 ft | 370 kts | 17° |
| 2026-04-28 23:07 | -35.70805 | -58.67121 | 11989 ft | 353 kts | 17° |
| 2026-04-28 23:07 | -35.68481 | -58.66279 | 11624 ft | 351 kts | 17° |
| 2026-04-28 23:07 | -35.66163 | -58.65438 | 11261 ft | 348 kts | 17° |
| 2026-04-28 23:08 | -35.63834 | -58.64594 | 10893 ft | 346 kts | 17° |
| 2026-04-28 23:08 | -35.61523 | -58.63756 | 10528 ft | 344 kts | 17° |
| 2026-04-28 23:08 | -35.59235 | -58.62927 | 10244 ft | 338 kts | 17° |
| 2026-04-28 23:08 | -35.57060 | -58.62140 | 10207 ft | 323 kts | 17° |
| 2026-04-28 23:09 | -35.54929 | -58.61369 | 10171 ft | 309 kts | 17° |
| 2026-04-28 23:09 | -35.52924 | -58.60644 | 10135 ft | 295 kts | 17° |
| 2026-04-28 23:09 | -35.50992 | -58.59947 | 10101 ft | 281 kts | 17° |
| 2026-04-28 23:09 | -35.49147 | -58.59281 | 10071 ft | 274 kts | 17° |
| 2026-04-28 23:10 | -35.47322 | -58.58622 | 10040 ft | 270 kts | 17° |
| 2026-04-28 23:10 | -35.45533 | -58.57977 | 9782 ft | 271 kts | 17° |
| 2026-04-28 23:10 | -35.43704 | -58.57317 | 9492 ft | 270 kts | 17° |
| 2026-04-28 23:10 | -35.41896 | -58.56666 | 9217 ft | 269 kts | 17° |
| 2026-04-28 23:11 | -35.40129 | -58.56029 | 8954 ft | 267 kts | 17° |
| 2026-04-28 23:11 | -35.38329 | -58.55381 | 8688 ft | 265 kts | 17° |
| 2026-04-28 23:11 | -35.36561 | -58.54744 | 8428 ft | 264 kts | 17° |
| 2026-04-28 23:11 | -35.34804 | -58.54112 | 8170 ft | 262 kts | 17° |
| 2026-04-28 23:12 | -35.33083 | -58.53492 | 7917 ft | 261 kts | 17° |
| 2026-04-28 23:12 | -35.31335 | -58.52863 | 7661 ft | 259 kts | 17° |
| 2026-04-28 23:12 | -35.29619 | -58.52246 | 7409 ft | 258 kts | 17° |
| 2026-04-28 23:12 | -35.27893 | -58.51626 | 7156 ft | 257 kts | 17° |
| 2026-04-28 23:13 | -35.26192 | -58.51015 | 6906 ft | 256 kts | 17° |
| 2026-04-28 23:13 | -35.24487 | -58.50403 | 6656 ft | 255 kts | 17° |
| 2026-04-28 23:13 | -35.22815 | -58.49803 | 6411 ft | 254 kts | 17° |
| 2026-04-28 23:13 | -35.21116 | -58.49193 | 6162 ft | 253 kts | 17° |
| 2026-04-28 23:14 | -35.19449 | -58.48595 | 5917 ft | 252 kts | 17° |
| 2026-04-28 23:14 | -35.17754 | -58.47987 | 5669 ft | 251 kts | 17° |
| 2026-04-28 23:14 | -35.16100 | -58.47395 | 5426 ft | 250 kts | 17° |
| 2026-04-28 23:14 | -35.14436 | -58.46799 | 5182 ft | 250 kts | 17° |
| 2026-04-28 23:15 | -35.12769 | -58.46203 | 5020 ft | 243 kts | 17° |
| 2026-04-28 23:15 | -35.11199 | -58.45642 | 5014 ft | 237 kts | 17° |
| 2026-04-28 23:15 | -35.09597 | -58.45071 | 5011 ft | 237 kts | 17° |
| 2026-04-28 23:15 | -35.07990 | -58.44676 | 4832 ft | 238 kts | 360° |
| 2026-04-28 23:16 | -35.06372 | -58.44939 | 4569 ft | 236 kts | 348° |
| 2026-04-28 23:16 | -35.04781 | -58.45394 | 4303 ft | 235 kts | 347° |
| 2026-04-28 23:16 | -35.03186 | -58.45868 | 4038 ft | 234 kts | 347° |
| 2026-04-28 23:16 | -35.01615 | -58.46324 | 3778 ft | 233 kts | 347° |
| 2026-04-28 23:17 | -35.00021 | -58.46776 | 3515 ft | 231 kts | 347° |
| 2026-04-28 23:17 | -34.98459 | -58.47220 | 3190 ft | 233 kts | 346° |
| 2026-04-28 23:17 | -34.96903 | -58.47744 | 2847 ft | 234 kts | 344° |
| 2026-04-28 23:17 | -34.95385 | -58.48287 | 2545 ft | 217 kts | 344° |
| 2026-04-28 23:18 | -34.94000 | -58.48783 | 2317 ft | 200 kts | 344° |
| 2026-04-28 23:18 | -34.92709 | -58.49241 | 2096 ft | 191 kts | 344° |
| 2026-04-28 23:18 | -34.91445 | -58.49686 | 1746 ft | 186 kts | 344° |
| 2026-04-28 23:18 | -34.90234 | -58.50111 | 1385 ft | 181 kts | 344° |
| 2026-04-28 23:19 | -34.89064 | -58.50520 | 1142 ft | 168 kts | 344° |
| 2026-04-28 23:19 | -34.87971 | -58.50892 | 906 ft | 158 kts | 345° |
| 2026-04-28 23:19 | -34.86962 | -58.51229 | 761 ft | 158 kts | 344° |
| 2026-04-28 23:19 | -34.85927 | -58.51598 | 658 ft | 158 kts | 343° |
| 2026-04-28 23:20 | -34.84880 | -58.51991 | 457 ft | 158 kts | 343° |
| 2026-04-28 23:20 | -34.83871 | -58.52344 | 250 ft | 157 kts | 345° |
| 2026-04-28 23:20 | -34.82834 | -58.52694 | 86 ft | 151 kts | 343° |
| 2026-04-28 23:20 | -34.81989 | -58.52990 | 81 ft | 94 kts | 344° |
| 2026-04-28 23:21 | -34.81570 | -58.53140 | 81 ft | 34 kts | 343° |
| 2026-04-28 23:21 | -34.81375 | -58.53209 | 81 ft | 20 kts | 344° |
| 2026-04-28 23:21 | -34.81266 | -58.53244 | 81 ft | 9 kts | 344° |
| 2026-04-28 23:21 | -34.81244 | -58.53252 | 81 ft | 10 kts | 344° |
| 2026-04-28 23:22 | -34.81163 | -58.53427 | 81 ft | 2 kts | 276° |
| 2026-04-28 23:22 | -34.81159 | -58.53474 | 81 ft | 4 kts | 276° |
| 2026-04-28 23:23 | -34.81158 | -58.53492 | 81 ft | 3 kts | 275° |
| 2026-04-28 23:23 | -34.81155 | -58.53536 | 81 ft | 7 kts | 275° |
| 2026-04-28 23:23 | -34.81157 | -58.53583 | 81 ft | 5 kts | 258° |
| 2026-04-28 23:23 | -34.81167 | -58.53643 | 81 ft | 8 kts | 259° |
| 2026-04-28 23:24 | -34.81170 | -58.53660 | 81 ft | 9 kts | 259° |
| 2026-04-28 23:24 | -34.81178 | -58.53710 | 81 ft | 6 kts | 255° |
| 2026-04-28 23:24 | -34.81187 | -58.53745 | 81 ft | 5 kts | 255° |
| 2026-04-28 23:24 | -34.81196 | -58.53772 | 81 ft | 5 kts | 234° |
| 2026-04-28 23:25 | -34.81215 | -58.53791 | 81 ft | 1 kts | 210° |
| 2026-04-28 23:25 | -34.81227 | -58.53799 | 81 ft | 0 kts | 208° |
| 2026-04-28 23:25 | -34.81233 | -58.53803 | 81 ft | 0 kts | 207° |